createdAt,value
2024-05-09T00:05:41.338Z,9.70
2024-05-09T00:08:12.596Z,9.70
2024-05-09T00:13:10.338Z,9.60
2024-05-09T00:23:12.697Z,9.60
2024-05-09T00:25:44.806Z,9.40
2024-05-09T00:28:13.015Z,9.60
2024-05-09T00:30:40.367Z,9.60
2024-05-09T00:33:09.626Z,9.50
2024-05-09T00:35:38.429Z,9.50
2024-05-09T00:40:40.656Z,9.50
2024-05-09T00:43:14.727Z,9.60
2024-05-09T00:45:43.658Z,9.40
2024-05-09T00:48:14.125Z,9.50
2024-05-09T00:50:45.677Z,9.40
2024-05-09T00:53:14.955Z,9.50
2024-05-09T00:55:42.845Z,9.40
2024-05-09T00:58:14.778Z,9.40
2024-05-09T01:00:42.222Z,9.20
2024-05-09T01:03:12.135Z,9.30
2024-05-09T01:05:41.144Z,9.30
2024-05-09T01:08:09.381Z,9.20
2024-05-09T01:13:05.547Z,9.20
2024-05-09T01:15:34.415Z,8.90
2024-05-09T01:18:07.022Z,8.90
2024-05-09T01:20:41.260Z,8.90
2024-05-09T01:23:11.847Z,9.00
2024-05-09T01:25:39.760Z,8.90
2024-05-09T01:30:37.009Z,8.80
2024-05-09T01:33:07.636Z,9.00
2024-05-09T01:35:36.808Z,8.90
2024-05-09T01:38:04.375Z,8.90
2024-05-09T01:53:06.419Z,8.90
2024-05-09T01:55:33.576Z,8.80
2024-05-09T02:03:15.604Z,8.70
2024-05-09T02:05:49.788Z,8.70
2024-05-09T02:08:21.494Z,8.60
2024-05-09T02:10:50.230Z,8.60
2024-05-09T02:13:18.017Z,8.70
2024-05-09T02:20:42.519Z,8.80
2024-05-09T02:23:10.415Z,8.70
2024-05-09T02:30:40.300Z,8.60
2024-05-09T02:33:14.135Z,8.60
2024-05-09T02:35:43.424Z,8.50
2024-05-09T02:38:11.539Z,8.50
2024-05-09T02:40:39.993Z,8.40
2024-05-09T02:43:09.625Z,8.30
2024-05-09T02:45:38.383Z,8.50
2024-05-09T03:00:38.267Z,8.40
2024-05-09T03:03:10.453Z,8.50
2024-05-09T03:05:40.418Z,8.30
2024-05-09T03:10:37.875Z,8.20
2024-05-09T03:13:15.300Z,8.30
2024-05-09T03:15:43.949Z,8.00
2024-05-09T03:18:11.896Z,7.90
2024-05-09T03:23:09.490Z,7.90
2024-05-09T03:28:05.292Z,7.70
2024-05-09T03:30:40.027Z,8.00
2024-05-09T03:33:17.432Z,8.00
2024-05-09T03:35:47.249Z,7.90
2024-05-09T03:40:46.357Z,7.90
2024-05-09T03:43:14.635Z,7.90
2024-05-09T03:45:44.980Z,7.90
2024-05-09T03:48:12.899Z,7.90
2024-05-09T03:50:40.443Z,7.90
2024-05-09T03:53:10.882Z,8.10
2024-05-09T03:58:08.122Z,7.90
2024-05-09T04:03:10.149Z,8.00
2024-05-09T04:05:41.401Z,8.30
2024-05-09T04:08:10.409Z,8.30
2024-05-09T04:10:38.060Z,8.50
2024-05-09T04:13:05.519Z,8.40
2024-05-09T04:15:32.928Z,8.50
2024-05-09T04:20:37.097Z,8.60
2024-05-09T04:28:05.145Z,8.80
2024-05-09T04:33:10.636Z,8.80
2024-05-09T04:38:10.111Z,8.80
2024-05-09T04:40:38.083Z,9.00
2024-05-09T04:43:06.633Z,8.80
2024-05-09T04:48:02.431Z,9.10
2024-05-09T04:53:08.385Z,9.20
2024-05-09T04:55:37.009Z,9.10
2024-05-09T04:58:05.445Z,9.20
2024-05-09T05:00:37.146Z,9.30
2024-05-09T05:03:08.380Z,9.40
2024-05-09T05:05:43.566Z,9.50
2024-05-09T05:08:13.039Z,9.60
2024-05-09T05:10:41.077Z,9.70
2024-05-09T05:15:58.444Z,9.80
2024-05-09T05:18:27.503Z,9.80
2024-05-09T05:20:58.857Z,10.00
2024-05-09T05:23:26.088Z,9.90
2024-05-09T05:25:54.288Z,10.10
2024-05-09T05:28:22.135Z,10.20
2024-05-09T05:30:49.976Z,10.20
2024-05-09T05:35:50.776Z,10.40
2024-05-09T05:43:17.915Z,10.50
2024-05-09T05:45:46.150Z,10.30
2024-05-09T05:48:16.727Z,10.40
2024-05-09T05:55:40.995Z,10.70
2024-05-09T05:58:15.069Z,10.90
2024-05-09T06:00:42.918Z,11.00
2024-05-09T06:03:12.157Z,11.10
2024-05-09T06:05:40.737Z,11.10
2024-05-09T06:08:08.586Z,11.10
2024-05-09T06:10:39.393Z,11.20
2024-05-09T06:15:40.190Z,11.30
2024-05-09T06:18:08.728Z,11.40
2024-05-09T06:23:10.354Z,11.40
2024-05-09T06:25:38.080Z,11.60
2024-05-09T06:33:11.033Z,11.70
2024-05-09T06:38:11.693Z,11.80
2024-05-09T06:40:42.964Z,11.80
2024-05-09T06:43:16.878Z,11.80
2024-05-09T06:48:17.621Z,12.10
2024-05-09T06:50:45.285Z,12.10
2024-05-09T06:53:15.024Z,12.20
2024-05-09T06:55:42.581Z,12.30
2024-05-09T07:00:39.973Z,12.70
2024-05-09T07:03:15.478Z,13.10
2024-05-09T07:08:13.233Z,13.60
2024-05-09T07:13:12.455Z,14.50
2024-05-09T07:18:15.514Z,15.30
2024-05-09T07:23:15.091Z,16.00
2024-05-09T07:25:42.790Z,16.80
2024-05-09T07:28:19.293Z,17.40
2024-05-09T07:30:47.030Z,16.90
2024-05-09T07:33:19.890Z,17.90
2024-05-09T07:35:48.225Z,18.50
2024-05-09T07:38:15.879Z,19.10
2024-05-09T07:40:43.486Z,18.80
2024-05-09T07:43:12.021Z,18.50
2024-05-09T07:45:48.969Z,18.50
2024-05-09T07:52:38.534Z,19.10
2024-05-09T07:53:49.721Z,19.20
2024-05-09T07:56:22.498Z,19.40
2024-05-09T07:58:52.817Z,19.60
2024-05-09T08:01:20.892Z,19.50
2024-05-09T08:03:48.660Z,19.60
2024-05-09T08:06:15.894Z,19.50
2024-05-09T08:08:43.006Z,19.30
2024-05-09T08:11:10.124Z,20.00
2024-05-09T08:13:37.481Z,20.60
2024-05-09T08:16:05.238Z,20.90
2024-05-09T08:18:32.588Z,20.30
2024-05-09T08:20:59.906Z,20.50
2024-05-09T08:23:27.058Z,19.80
2024-05-09T08:25:54.243Z,20.00
2024-05-09T08:28:21.615Z,20.10
2024-05-09T08:30:49.242Z,20.20
2024-05-09T08:33:16.660Z,21.00
2024-05-09T08:35:43.898Z,21.60
2024-05-09T08:38:11.112Z,21.20
2024-05-09T08:40:38.844Z,21.00
2024-05-09T08:43:11.878Z,20.90
2024-05-09T08:45:43.954Z,20.60
2024-05-09T08:48:14.137Z,20.40
2024-05-09T08:50:42.268Z,19.90
2024-05-09T08:53:09.646Z,20.30
2024-05-09T08:55:40.766Z,20.30
2024-05-09T08:58:15.446Z,20.10
2024-05-09T09:00:44.723Z,20.50
2024-05-09T09:03:16.795Z,20.60
2024-05-09T09:05:56.084Z,20.70
2024-05-09T09:08:23.400Z,20.70
2024-05-09T09:10:54.250Z,21.00
2024-05-09T09:13:21.486Z,21.10
2024-05-09T09:15:49.862Z,21.10
2024-05-09T09:18:18.035Z,20.40
2024-05-09T09:20:45.724Z,21.10
2024-05-09T09:23:12.994Z,21.60
2024-05-09T09:25:41.033Z,21.60
2024-05-09T09:28:09.459Z,22.30
2024-05-09T09:30:41.270Z,22.00
2024-05-09T09:33:12.114Z,21.80
2024-05-09T09:35:42.497Z,21.00
2024-05-09T09:38:10.854Z,20.30
2024-05-09T09:40:46.533Z,20.20
2024-05-09T09:43:23.250Z,20.50
2024-05-09T09:45:52.403Z,22.30
2024-05-09T09:48:21.459Z,22.50
2024-05-09T09:50:53.685Z,22.70
2024-05-09T09:53:22.664Z,22.80
2024-05-09T09:55:51.291Z,22.80
2024-05-09T09:58:18.768Z,23.00
2024-05-09T10:00:46.461Z,23.40
2024-05-09T10:03:13.789Z,24.10
2024-05-09T10:05:44.054Z,24.10
2024-05-09T10:08:13.900Z,24.90
2024-05-09T10:10:47.925Z,24.90
2024-05-09T10:13:15.812Z,24.80
2024-05-09T10:15:48.190Z,23.90
2024-05-09T10:18:15.799Z,24.90
2024-05-09T10:20:44.358Z,23.70
2024-05-09T10:23:29.068Z,24.50
2024-05-09T10:26:00.101Z,26.20
2024-05-09T10:28:35.363Z,26.10
2024-05-09T10:31:14.025Z,25.60
2024-05-09T10:33:52.592Z,25.40
2024-05-09T10:36:22.436Z,24.50
2024-05-09T10:38:50.740Z,25.10
2024-05-09T10:41:18.846Z,26.00
2024-05-09T10:43:46.576Z,26.50
2024-05-09T10:46:19.045Z,27.60
2024-05-09T10:48:48.286Z,26.90
2024-05-09T10:51:16.849Z,26.70
2024-05-09T10:53:45.855Z,26.40
2024-05-09T10:56:16.794Z,26.60
2024-05-09T10:58:44.202Z,27.40
2024-05-09T11:01:12.098Z,27.10
2024-05-09T11:03:40.107Z,26.40
2024-05-09T11:06:08.311Z,26.70
2024-05-09T11:08:36.523Z,26.90
2024-05-09T11:11:07.804Z,27.90
2024-05-09T11:13:36.515Z,26.30
2024-05-09T11:16:05.088Z,28.00
2024-05-09T11:18:36.577Z,26.70
2024-05-09T11:21:13.018Z,28.00
2024-05-09T11:23:41.111Z,25.90
2024-05-09T11:26:09.306Z,25.90
2024-05-09T11:28:36.564Z,25.20
2024-05-09T11:31:08.944Z,26.10
2024-05-09T11:33:38.930Z,26.50
2024-05-09T11:36:07.794Z,27.10
2024-05-09T11:38:34.980Z,27.90
2024-05-09T11:41:05.773Z,27.50
2024-05-09T11:43:33.304Z,26.70
2024-05-09T11:46:03.038Z,27.10
2024-05-09T11:48:30.894Z,27.90
2024-05-09T11:50:58.182Z,28.00
2024-05-09T11:53:25.316Z,25.90
2024-05-09T11:55:52.708Z,25.90
2024-05-09T11:58:21.515Z,25.10
2024-05-09T12:00:49.014Z,25.70
2024-05-09T12:03:16.547Z,25.30
2024-05-09T12:05:43.859Z,25.20
2024-05-09T12:08:11.366Z,25.20
2024-05-09T12:10:38.687Z,25.00
2024-05-09T12:13:07.086Z,25.50
2024-05-09T12:15:37.892Z,25.90
2024-05-09T12:18:07.330Z,26.30
2024-05-09T12:20:38.351Z,26.40
2024-05-09T12:23:09.665Z,26.80
2024-05-09T12:25:39.166Z,27.30
2024-05-09T12:28:07.565Z,27.10
2024-05-09T12:30:38.807Z,27.10
2024-05-09T12:33:09.206Z,26.60
2024-05-09T12:38:04.532Z,27.20
2024-05-09T12:40:36.501Z,27.10
2024-05-09T12:43:08.441Z,27.60
2024-05-09T12:45:36.817Z,27.20
2024-05-09T12:50:35.073Z,27.30
2024-05-09T12:55:40.283Z,27.00
2024-05-09T13:00:43.881Z,26.60
2024-05-09T13:08:09.275Z,26.50
2024-05-09T13:10:37.075Z,26.70
2024-05-09T13:13:04.725Z,26.50
2024-05-09T13:15:34.689Z,26.30
2024-05-09T13:20:34.189Z,26.40
2024-05-09T13:23:08.223Z,25.70
2024-05-09T13:25:38.594Z,25.70
2024-05-09T13:28:07.632Z,25.70
2024-05-09T13:30:40.353Z,25.30
2024-05-09T13:33:13.753Z,25.60
2024-05-09T13:35:48.813Z,25.60
2024-05-09T13:38:21.426Z,26.10
2024-05-09T13:43:18.184Z,26.60
2024-05-09T13:45:45.932Z,26.40
2024-05-09T13:48:13.379Z,26.40
2024-05-09T13:50:40.609Z,26.50
2024-05-09T13:53:08.769Z,26.20
2024-05-09T13:55:38.801Z,26.20
2024-05-09T13:58:07.178Z,26.10
2024-05-09T14:00:44.223Z,26.40
2024-05-09T14:03:17.014Z,26.20
2024-05-09T14:05:46.340Z,26.30
2024-05-09T14:10:46.623Z,24.90
2024-05-09T14:13:14.355Z,25.30
2024-05-09T14:18:12.713Z,24.60
2024-05-09T14:23:09.015Z,24.70
2024-05-09T14:25:39.939Z,25.10
2024-05-09T14:28:09.440Z,25.10
2024-05-09T14:30:38.244Z,25.50
2024-05-09T14:33:07.700Z,25.90
2024-05-09T14:43:03.795Z,25.40
2024-05-09T14:45:32.018Z,25.20
2024-05-09T14:50:34.750Z,25.20
2024-05-09T14:53:06.670Z,24.40
2024-05-09T14:55:36.923Z,24.60
2024-05-09T14:58:07.497Z,25.00
2024-05-09T15:00:42.271Z,24.60
2024-05-09T15:03:12.334Z,23.80
2024-05-09T15:05:40.055Z,23.90
2024-05-09T15:08:08.453Z,24.30
2024-05-09T15:10:36.995Z,24.40
2024-05-09T15:13:07.944Z,23.60
2024-05-09T15:15:37.450Z,23.90
2024-05-09T15:18:05.862Z,23.50
2024-05-09T15:23:06.427Z,23.10
2024-05-09T15:25:35.814Z,23.60
2024-05-09T15:28:04.757Z,23.20
2024-05-09T15:30:33.838Z,23.10
2024-05-09T15:33:06.453Z,23.00
2024-05-09T15:35:34.967Z,23.00
2024-05-09T15:38:05.392Z,23.30
2024-05-09T15:43:10.221Z,22.70
2024-05-09T15:45:39.084Z,23.00
2024-05-09T15:48:07.790Z,22.70
2024-05-09T15:50:39.320Z,22.10
2024-05-09T15:53:10.247Z,22.30
2024-05-09T15:55:38.028Z,22.50
2024-05-09T15:58:06.425Z,22.50
2024-05-09T16:00:38.846Z,22.40
2024-05-09T16:03:14.221Z,22.40
2024-05-09T16:05:44.753Z,21.80
2024-05-09T16:08:13.658Z,21.70
2024-05-09T16:13:17.192Z,22.00
2024-05-09T16:18:12.811Z,21.80
2024-05-09T16:20:42.254Z,21.80
2024-05-09T16:23:11.109Z,21.20
2024-05-09T16:28:09.735Z,21.20
2024-05-09T16:30:39.288Z,20.90
2024-05-09T16:33:07.613Z,20.70
2024-05-09T16:35:35.447Z,20.50
2024-05-09T16:38:03.990Z,20.50
2024-05-09T16:43:12.169Z,20.20
2024-05-09T16:45:41.078Z,19.90
2024-05-09T16:48:09.198Z,19.90
2024-05-09T16:53:05.991Z,19.60
2024-05-09T16:58:02.529Z,19.20
2024-05-09T17:00:39.474Z,19.20
2024-05-09T17:03:12.936Z,19.10
2024-05-09T17:05:41.700Z,18.90
2024-05-09T17:10:37.306Z,18.70
2024-05-09T17:18:06.072Z,18.50
2024-05-09T17:23:13.139Z,18.30
2024-05-09T17:25:41.616Z,18.30
2024-05-09T17:28:09.540Z,18.20
2024-05-09T17:30:39.592Z,18.30
2024-05-09T17:33:09.796Z,18.00
2024-05-09T17:35:38.476Z,18.00
2024-05-09T17:38:06.613Z,18.00
2024-05-09T17:40:36.554Z,17.60
2024-05-09T17:43:06.924Z,17.90
2024-05-09T17:45:37.800Z,17.80
2024-05-09T17:48:05.631Z,17.70
2024-05-09T17:53:05.961Z,17.10
2024-05-09T17:55:33.589Z,17.00
2024-05-09T18:00:37.065Z,16.70
2024-05-09T18:03:08.646Z,16.80
2024-05-09T18:08:08.921Z,16.50
2024-05-09T18:13:08.809Z,16.60
2024-05-09T18:18:05.549Z,16.30
2024-05-09T18:28:09.297Z,16.00
2024-05-09T18:30:37.439Z,15.90
2024-05-09T18:33:07.249Z,15.80
2024-05-09T18:35:35.850Z,15.70
2024-05-09T18:43:07.061Z,15.20
2024-05-09T18:45:37.262Z,15.30
2024-05-09T18:50:37.667Z,15.20
2024-05-09T18:53:07.843Z,15.20
2024-05-09T18:58:04.753Z,15.10
2024-05-09T19:03:11.772Z,14.90
2024-05-09T19:08:10.419Z,14.90
2024-05-09T19:10:39.034Z,14.80
2024-05-09T19:18:10.379Z,14.90
2024-05-09T19:20:38.273Z,15.10
2024-05-09T19:23:06.949Z,15.10
2024-05-09T19:28:04.009Z,14.80
2024-05-09T19:33:09.838Z,14.70
2024-05-09T19:35:38.152Z,14.60
2024-05-09T19:38:05.667Z,14.60
2024-05-09T19:40:34.467Z,14.40
2024-05-09T19:43:03.294Z,14.50
2024-05-09T19:55:38.116Z,14.30
2024-05-09T19:58:07.323Z,14.30
2024-05-09T20:00:38.263Z,14.40
2024-05-09T20:08:05.062Z,14.30
2024-05-09T20:13:04.841Z,14.20
2024-05-09T20:15:34.924Z,14.10
2024-05-09T20:28:05.361Z,13.80
2024-05-09T20:30:34.565Z,13.60
2024-05-09T20:33:04.562Z,13.60
2024-05-09T20:35:33.200Z,13.70
2024-05-09T20:40:34.438Z,13.70
2024-05-09T20:43:05.474Z,13.60
2024-05-09T20:45:33.124Z,13.60
2024-05-09T20:53:15.363Z,13.60
2024-05-09T20:55:46.009Z,13.60
2024-05-09T21:00:44.505Z,13.70
2024-05-09T21:03:15.978Z,13.70
2024-05-09T21:18:04.411Z,13.50
2024-05-09T21:25:31.372Z,13.50
2024-05-09T21:33:10.107Z,13.50
2024-05-09T21:43:05.623Z,13.30
2024-05-09T21:45:33.578Z,13.20
2024-05-09T21:53:07.843Z,13.00
2024-05-09T22:03:07.680Z,12.40
2024-05-09T22:05:36.077Z,12.40
2024-05-09T22:08:03.934Z,12.50
2024-05-09T22:10:34.847Z,12.50
2024-05-09T22:13:05.212Z,12.60
2024-05-09T22:15:36.413Z,12.60
2024-05-09T22:18:04.845Z,12.60
2024-05-09T22:20:37.254Z,12.50
2024-05-09T22:25:34.893Z,12.50
2024-05-09T22:28:03.080Z,12.40
2024-05-09T22:33:11.006Z,12.30
2024-05-09T22:38:07.122Z,12.30
2024-05-09T22:43:21.369Z,12.10
2024-05-09T22:53:14.097Z,12.20
2024-05-09T22:55:41.499Z,12.30
2024-05-09T22:58:08.699Z,12.40
2024-05-09T23:03:03.865Z,12.30
2024-05-09T23:08:02.869Z,12.20
2024-05-09T23:10:35.815Z,12.10
2024-05-09T23:23:10.996Z,11.40
2024-05-09T23:30:38.613Z,11.10
2024-05-09T23:33:09.432Z,11.00
2024-05-09T23:43:02.341Z,11.30
2024-05-09T23:45:29.511Z,11.40
2024-05-09T23:47:56.747Z,11.40
2024-05-09T23:50:31.301Z,11.50
2024-05-09T23:53:02.834Z,11.40
2024-05-09T23:57:59.172Z,11.50
